createdAt,value
2019-02-21T00:02:23.849Z,80.54
2019-02-21T00:04:49.714Z,80.42
2019-02-21T00:07:15.641Z,80.50
2019-02-21T00:09:41.485Z,80.74
2019-02-21T00:12:07.303Z,80.72
2019-02-21T00:14:33.160Z,80.67
2019-02-21T00:16:59.100Z,80.63
2019-02-21T00:19:24.945Z,80.58
2019-02-21T00:21:50.793Z,80.54
2019-02-21T00:24:16.651Z,80.45
2019-02-21T00:26:44.254Z,80.33
2019-02-21T00:29:10.405Z,80.50
2019-02-21T00:31:36.254Z,80.58
2019-02-21T00:34:02.064Z,80.59
2019-02-21T00:36:28.015Z,80.74
2019-02-21T00:38:53.864Z,80.97
2019-02-21T00:41:19.706Z,80.56
2019-02-21T00:43:45.528Z,80.91
2019-02-21T00:46:11.933Z,81.01
2019-02-21T00:48:37.773Z,81.09
2019-02-21T00:51:03.614Z,81.21
2019-02-21T00:53:29.440Z,81.37
2019-02-21T00:55:55.512Z,81.60
2019-02-21T00:58:21.434Z,81.44
2019-02-21T01:00:47.389Z,81.41
2019-02-21T01:03:13.214Z,81.52
2019-02-21T01:05:39.269Z,81.45
2019-02-21T01:08:05.941Z,81.46
2019-02-21T01:10:31.820Z,81.72
2019-02-21T01:12:58.707Z,81.89
2019-02-21T01:15:24.603Z,81.87
2019-02-21T01:17:50.443Z,81.82
2019-02-21T01:20:16.392Z,82.12
2019-02-21T01:22:42.358Z,82.17
2019-02-21T01:25:08.192Z,81.96
2019-02-21T01:27:34.045Z,81.96
2019-02-21T01:29:59.877Z,82.16
2019-02-21T01:32:25.826Z,82.15
2019-02-21T01:34:51.641Z,82.30
2019-02-21T01:37:17.581Z,82.40
2019-02-21T01:39:43.404Z,82.22
2019-02-21T01:42:09.268Z,82.16
2019-02-21T01:44:35.124Z,82.13
2019-02-21T01:47:00.969Z,81.98
2019-02-21T01:49:26.789Z,82.27
2019-02-21T01:51:52.649Z,82.12
2019-02-21T01:54:18.506Z,82.10
2019-02-21T01:56:44.327Z,82.06
2019-02-21T01:59:10.165Z,82.01
2019-02-21T02:01:35.995Z,82.14
2019-02-21T02:04:01.856Z,82.31
2019-02-21T02:06:27.782Z,82.49
2019-02-21T02:08:53.780Z,82.47
2019-02-21T02:11:19.736Z,82.25
2019-02-21T02:13:45.584Z,82.40
2019-02-21T02:16:11.424Z,82.38
2019-02-21T02:18:37.280Z,82.50
2019-02-21T02:21:04.136Z,82.41
2019-02-21T02:23:29.976Z,82.20
2019-02-21T02:25:55.826Z,82.05
2019-02-21T02:28:21.675Z,81.87
2019-02-21T02:30:47.499Z,81.43
2019-02-21T02:33:13.319Z,80.95
2019-02-21T02:35:39.176Z,80.51
2019-02-21T02:38:04.973Z,79.82
2019-02-21T02:40:30.829Z,79.34
2019-02-21T02:42:56.647Z,79.05
2019-02-21T02:45:22.492Z,78.62
2019-02-21T02:47:48.330Z,78.67
2019-02-21T02:50:14.219Z,78.65
2019-02-21T02:52:40.074Z,78.40
2019-02-21T02:55:06.031Z,78.31
2019-02-21T02:57:31.869Z,78.02
2019-02-21T02:59:57.724Z,77.92
2019-02-21T03:02:24.126Z,77.71
2019-02-21T03:04:50.043Z,77.70
2019-02-21T03:07:15.842Z,77.56
2019-02-21T03:09:41.791Z,77.34
2019-02-21T03:12:07.608Z,77.39
2019-02-21T03:14:33.444Z,77.37
2019-02-21T03:16:59.278Z,77.25
2019-02-21T03:19:25.113Z,77.35
2019-02-21T03:21:50.965Z,77.15
2019-02-21T03:24:16.811Z,76.97
2019-02-21T03:26:42.640Z,76.93
2019-02-21T03:29:08.464Z,76.64
2019-02-21T03:31:52.652Z,76.72
2019-02-21T03:34:02.150Z,76.69
2019-02-21T03:36:28.025Z,76.70
2019-02-21T03:38:53.851Z,76.88
2019-02-21T03:41:19.695Z,77.15
2019-02-21T03:43:45.509Z,77.01
2019-02-21T03:46:11.453Z,76.88
2019-02-21T03:48:37.297Z,76.85
2019-02-21T03:51:03.112Z,76.71
2019-02-21T03:53:29.431Z,76.76
2019-02-21T03:58:31.057Z,76.72
2019-02-21T04:00:57.022Z,76.63
2019-02-21T04:03:22.964Z,76.55
2019-02-21T04:05:48.809Z,76.52
2019-02-21T04:08:14.696Z,76.47
2019-02-21T04:10:40.515Z,76.68
2019-02-21T04:13:06.352Z,76.43
2019-02-21T04:15:32.829Z,76.22
2019-02-21T04:17:58.691Z,76.24
2019-02-21T04:20:24.546Z,76.24
2019-02-21T04:22:50.395Z,76.28
2019-02-21T04:25:16.208Z,76.17
2019-02-21T04:27:42.126Z,76.11
2019-02-21T04:30:08.349Z,76.03
2019-02-21T04:32:34.182Z,76.13
2019-02-21T04:35:00.323Z,76.20
2019-02-21T04:37:26.332Z,76.24
2019-02-21T04:39:52.171Z,76.19
2019-02-21T04:42:18.209Z,76.24
2019-02-21T04:44:44.049Z,76.49
2019-02-21T04:47:09.866Z,76.70
2019-02-21T04:49:35.714Z,76.74
2019-02-21T04:52:01.518Z,76.90
2019-02-21T04:54:27.371Z,77.25
2019-02-21T04:56:53.194Z,77.82
2019-02-21T04:59:19.045Z,78.08
2019-02-21T05:01:44.863Z,78.33
2019-02-21T05:04:10.704Z,78.83
2019-02-21T05:06:36.539Z,79.08
2019-02-21T05:09:04.319Z,79.49
2019-02-21T05:11:30.134Z,79.87
2019-02-21T05:13:56.025Z,80.38
2019-02-21T05:16:21.876Z,80.24
2019-02-21T05:18:47.709Z,80.42
2019-02-21T05:21:13.578Z,80.69
2019-02-21T05:23:39.446Z,80.82
2019-02-21T05:26:06.229Z,81.07
2019-02-21T05:28:32.057Z,81.17
2019-02-21T05:30:59.786Z,81.23
2019-02-21T05:33:39.721Z,81.14
2019-02-21T05:36:07.506Z,81.16
2019-02-21T05:38:35.338Z,81.30
2019-02-21T05:41:06.092Z,81.39
2019-02-21T05:43:37.343Z,81.64
2019-02-21T05:46:08.245Z,81.73
2019-02-21T05:48:35.910Z,81.81
2019-02-21T05:51:06.198Z,81.81
2019-02-21T05:53:33.929Z,82.27
2019-02-21T05:56:16.710Z,82.24
2019-02-21T05:58:50.567Z,82.45
2019-02-21T06:01:21.085Z,82.65
2019-02-21T06:03:57.899Z,82.77
2019-02-21T06:06:25.656Z,82.92
2019-02-21T06:08:59.314Z,83.08
2019-02-21T06:11:34.931Z,83.11
2019-02-21T06:14:05.234Z,83.13
2019-02-21T06:16:35.826Z,83.26
2019-02-21T06:19:06.345Z,83.36
2019-02-21T06:21:42.701Z,83.54
2019-02-21T06:24:13.447Z,83.67
2019-02-21T06:26:57.875Z,83.63
2019-02-21T06:29:25.757Z,83.59
2019-02-21T06:31:51.909Z,83.48
2019-02-21T06:34:17.735Z,83.33
2019-02-21T06:36:43.561Z,82.94
2019-02-21T06:39:09.403Z,82.78
2019-02-21T06:41:35.336Z,82.84
2019-02-21T06:44:01.212Z,82.94
2019-02-21T06:46:27.046Z,82.87
2019-02-21T06:48:52.885Z,83.14
2019-02-21T06:51:18.700Z,83.60
2019-02-21T06:53:44.545Z,83.47
2019-02-21T06:56:10.406Z,83.29
2019-02-21T06:58:36.254Z,83.17
2019-02-21T07:01:02.040Z,83.11
2019-02-21T07:03:29.081Z,82.95
2019-02-21T07:05:55.663Z,82.79
2019-02-21T07:08:21.524Z,82.58
2019-02-21T07:10:47.378Z,82.54
2019-02-21T07:13:13.264Z,82.17
2019-02-21T07:15:39.115Z,81.85
2019-02-21T07:18:05.068Z,81.47
2019-02-21T07:20:31.056Z,81.12
2019-02-21T07:22:56.893Z,80.84
2019-02-21T07:25:39.654Z,80.54
2019-02-21T07:28:11.727Z,80.28
2019-02-21T07:30:33.592Z,79.76
2019-02-21T07:32:59.520Z,79.13
2019-02-21T07:35:25.473Z,78.96
2019-02-21T07:37:53.356Z,78.46
2019-02-21T07:40:20.357Z,77.84
2019-02-21T07:42:48.120Z,77.34
2019-02-21T07:45:14.386Z,76.94
2019-02-21T07:47:40.631Z,76.50
2019-02-21T07:50:07.416Z,75.80
2019-02-21T07:52:33.263Z,75.25
2019-02-21T07:55:02.056Z,74.59
2019-02-21T07:57:26.871Z,73.92
2019-02-21T07:59:52.774Z,74.06
2019-02-21T08:02:20.917Z,73.88
2019-02-21T08:04:46.514Z,74.09
2019-02-21T08:07:12.336Z,74.04
2019-02-21T08:09:38.160Z,73.61
2019-02-21T08:12:04.104Z,72.87
2019-02-21T08:14:29.940Z,72.06
2019-02-21T08:16:56.230Z,71.54
2019-02-21T08:19:22.231Z,70.58
2019-02-21T08:21:48.326Z,69.87
2019-02-21T08:24:14.417Z,68.45
2019-02-21T08:26:40.258Z,67.53
2019-02-21T08:29:06.361Z,67.62
2019-02-21T08:31:32.659Z,66.77
2019-02-21T08:34:04.406Z,66.41
2019-02-21T08:36:30.780Z,65.82
2019-02-21T08:38:56.603Z,66.47
2019-02-21T08:41:22.459Z,66.68
2019-02-21T08:43:48.279Z,66.80
2019-02-21T08:46:14.221Z,65.27
2019-02-21T08:48:40.590Z,64.93
2019-02-21T08:51:06.718Z,63.49
2019-02-21T08:53:32.563Z,63.48
2019-02-21T08:55:58.399Z,62.86
2019-02-21T08:58:24.249Z,62.99
2019-02-21T09:00:50.098Z,62.54
2019-02-21T09:03:18.016Z,62.48
2019-02-21T09:05:43.701Z,63.10
2019-02-21T09:08:09.556Z,64.05
2019-02-21T09:10:35.596Z,64.00
2019-02-21T09:13:01.447Z,63.44
2019-02-21T09:15:27.330Z,63.65
2019-02-21T09:17:54.228Z,64.10
2019-02-21T09:20:20.436Z,63.60
2019-02-21T09:22:46.289Z,63.13
2019-02-21T09:25:13.231Z,62.69
2019-02-21T09:27:39.154Z,62.55
2019-02-21T09:30:14.837Z,63.54
2019-02-21T09:32:42.020Z,63.08
2019-02-21T09:35:08.451Z,62.41
2019-02-21T09:37:34.370Z,62.65
2019-02-21T09:40:00.330Z,63.08
2019-02-21T09:42:26.144Z,62.56
2019-02-21T09:44:51.998Z,61.89
2019-02-21T09:47:17.817Z,61.07
2019-02-21T09:49:43.773Z,60.65
2019-02-21T09:52:09.694Z,59.69
2019-02-21T09:54:35.557Z,59.56
2019-02-21T09:57:12.795Z,59.71
2019-02-21T09:59:31.037Z,59.97
2019-02-21T10:01:57.694Z,61.24
2019-02-21T10:04:31.922Z,59.68
2019-02-21T10:06:51.457Z,58.67
2019-02-21T10:09:17.290Z,57.63
2019-02-21T10:11:43.105Z,55.27
2019-02-21T10:14:08.936Z,54.49
2019-02-21T10:16:34.776Z,52.80
2019-02-21T10:19:00.595Z,51.49
2019-02-21T10:21:26.495Z,51.32
2019-02-21T10:23:52.310Z,52.01
2019-02-21T10:26:18.168Z,51.46
2019-02-21T10:28:45.241Z,52.06
2019-02-21T10:31:11.524Z,52.26
2019-02-21T10:33:46.577Z,51.12
2019-02-21T10:36:05.229Z,51.89
2019-02-21T10:38:31.050Z,53.28
2019-02-21T10:40:56.945Z,55.71
2019-02-21T10:43:22.779Z,55.71
2019-02-21T10:45:48.584Z,56.58
2019-02-21T10:48:14.477Z,55.97
2019-02-21T10:50:40.352Z,56.88
2019-02-21T10:53:06.195Z,57.28
2019-02-21T10:55:32.020Z,57.95
2019-02-21T10:57:58.246Z,57.05
2019-02-21T11:00:28.794Z,55.90
2019-02-21T11:02:54.753Z,52.23
2019-02-21T11:05:20.681Z,41.99
2019-02-21T11:07:46.627Z,36.19
2019-02-21T11:10:18.928Z,32.63
2019-02-21T11:12:43.852Z,32.85
2019-02-21T11:15:12.192Z,32.29
2019-02-21T11:17:38.039Z,34.86
2019-02-21T11:20:07.689Z,32.76
2019-02-21T11:22:33.537Z,32.01
2019-02-21T11:24:59.372Z,33.11
2019-02-21T11:27:25.215Z,32.71
2019-02-21T11:29:51.053Z,32.34
2019-02-21T11:32:16.900Z,31.60
2019-02-21T11:34:42.733Z,33.08
2019-02-21T11:37:08.648Z,36.32
2019-02-21T11:39:34.498Z,37.45
2019-02-21T11:42:00.648Z,37.00
2019-02-21T11:44:26.582Z,36.35
2019-02-21T11:46:52.401Z,38.86
2019-02-21T11:49:18.266Z,37.66
2019-02-21T11:51:44.089Z,35.30
2019-02-21T11:54:09.946Z,34.36
2019-02-21T11:56:35.754Z,34.95
2019-02-21T11:59:01.606Z,34.28
2019-02-21T12:01:27.467Z,33.66
2019-02-21T12:03:53.675Z,34.84
2019-02-21T12:06:22.653Z,37.24
2019-02-21T12:08:48.615Z,36.57
2019-02-21T12:11:14.455Z,35.51
2019-02-21T12:13:40.281Z,35.06
2019-02-21T12:16:06.215Z,39.07
2019-02-21T12:18:32.098Z,33.19
2019-02-21T12:20:58.068Z,35.23
2019-02-21T12:23:23.891Z,33.38
2019-02-21T12:25:49.848Z,37.15
2019-02-21T12:28:15.822Z,39.52
2019-02-21T12:30:41.688Z,39.56
2019-02-21T12:33:08.532Z,39.84
2019-02-21T12:35:34.370Z,38.38
2019-02-21T12:38:00.210Z,36.85
2019-02-21T12:40:26.085Z,33.32
2019-02-21T12:42:52.022Z,30.45
2019-02-21T12:45:20.175Z,28.47
2019-02-21T12:47:52.765Z,30.20
2019-02-21T12:50:14.428Z,31.09
2019-02-21T12:52:40.380Z,30.91
2019-02-21T12:55:08.235Z,33.81
2019-02-21T12:57:34.092Z,36.54
2019-02-21T12:59:59.942Z,39.59
2019-02-21T13:02:25.817Z,39.61
2019-02-21T13:04:51.669Z,39.84
2019-02-21T13:07:17.535Z,34.53
2019-02-21T13:09:43.383Z,31.83
2019-02-21T13:12:09.333Z,33.28
2019-02-21T13:14:35.280Z,31.94
2019-02-21T13:17:01.131Z,33.24
2019-02-21T13:19:26.971Z,36.82
2019-02-21T13:21:52.939Z,37.68
2019-02-21T13:24:18.762Z,39.31
2019-02-21T13:26:44.651Z,41.52
2019-02-21T13:29:10.485Z,42.22
2019-02-21T13:31:36.334Z,42.52
2019-02-21T13:34:02.404Z,43.48
2019-02-21T13:36:28.268Z,45.07
2019-02-21T13:38:54.368Z,45.90
2019-02-21T13:41:20.203Z,48.16
2019-02-21T13:43:46.070Z,49.98
2019-02-21T13:46:11.902Z,50.25
2019-02-21T13:48:37.773Z,51.35
2019-02-21T13:51:03.605Z,52.41
2019-02-21T13:53:29.498Z,53.25
2019-02-21T13:55:55.445Z,53.91
2019-02-21T13:58:21.317Z,54.30
2019-02-21T14:00:47.180Z,54.50
2019-02-21T14:03:13.052Z,55.30
2019-02-21T14:05:38.869Z,55.15
2019-02-21T14:08:05.168Z,54.97
2019-02-21T14:10:31.117Z,54.00
2019-02-21T14:12:56.933Z,52.13
2019-02-21T14:15:25.699Z,52.25
2019-02-21T14:17:51.504Z,52.52
2019-02-21T14:20:17.406Z,52.64
2019-02-21T14:22:43.245Z,53.69
2019-02-21T14:25:09.710Z,52.70
2019-02-21T14:27:35.702Z,53.58
2019-02-21T14:30:03.467Z,53.86
2019-02-21T14:32:29.335Z,54.96
2019-02-21T14:34:55.208Z,55.18
2019-02-21T14:37:21.061Z,56.26
2019-02-21T14:39:46.878Z,56.77
2019-02-21T14:42:12.870Z,56.84
2019-02-21T14:44:38.725Z,56.50
2019-02-21T14:47:04.541Z,56.28
2019-02-21T14:49:30.492Z,56.33
2019-02-21T14:51:56.332Z,55.80
2019-02-21T14:54:22.176Z,56.32
2019-02-21T14:56:48.080Z,55.21
2019-02-21T14:59:13.890Z,53.93
2019-02-21T15:01:39.763Z,53.70
2019-02-21T15:04:05.619Z,53.70
2019-02-21T15:06:31.628Z,54.11
2019-02-21T15:08:57.485Z,53.62
2019-02-21T15:11:23.310Z,54.88
2019-02-21T15:13:49.143Z,54.88
2019-02-21T15:16:15.081Z,54.46
2019-02-21T15:18:40.930Z,53.35
2019-02-21T15:21:06.830Z,54.05
2019-02-21T15:23:32.650Z,54.22
2019-02-21T15:25:58.538Z,54.59
2019-02-21T15:28:24.359Z,54.76
2019-02-21T15:30:50.244Z,55.48
2019-02-21T15:33:16.097Z,56.34
2019-02-21T15:35:41.920Z,56.62
2019-02-21T15:38:17.172Z,57.06
2019-02-21T15:40:35.497Z,57.27
2019-02-21T15:43:01.461Z,57.03
2019-02-21T15:45:28.291Z,57.05
2019-02-21T15:47:54.331Z,57.68
2019-02-21T15:50:20.484Z,57.56
2019-02-21T15:52:46.866Z,57.97
2019-02-21T15:55:15.582Z,58.37
2019-02-21T15:57:41.571Z,58.35
2019-02-21T16:00:13.597Z,58.42
2019-02-21T16:02:39.480Z,59.00
2019-02-21T16:05:06.027Z,58.37
2019-02-21T16:07:31.852Z,58.17
2019-02-21T16:09:57.710Z,59.24
2019-02-21T16:12:24.166Z,59.80
2019-02-21T16:14:50.383Z,59.84
2019-02-21T16:17:16.396Z,59.50
2019-02-21T16:19:42.278Z,59.88
2019-02-21T16:22:08.162Z,60.02
2019-02-21T16:24:34.063Z,60.02
2019-02-21T16:26:59.921Z,60.62
2019-02-21T16:29:25.999Z,60.31
2019-02-21T16:31:52.025Z,60.64
2019-02-21T16:34:18.400Z,61.18
2019-02-21T16:36:44.232Z,61.16
2019-02-21T16:39:10.299Z,61.35
2019-02-21T16:41:36.787Z,61.92
2019-02-21T16:44:02.968Z,62.78
2019-02-21T16:46:28.805Z,63.02
2019-02-21T16:48:54.764Z,62.54
2019-02-21T16:51:22.226Z,62.50
2019-02-21T16:53:48.314Z,62.80
2019-02-21T16:56:14.193Z,63.98
2019-02-21T16:58:42.695Z,63.37
2019-02-21T17:01:08.017Z,64.22
2019-02-21T17:03:33.885Z,63.53
2019-02-21T17:05:59.752Z,63.42
2019-02-21T17:08:25.701Z,63.56
2019-02-21T17:10:51.573Z,64.75
2019-02-21T17:13:17.426Z,64.95
2019-02-21T17:15:43.382Z,65.66
2019-02-21T17:18:09.324Z,65.45
2019-02-21T17:20:35.235Z,64.85
2019-02-21T17:23:01.062Z,64.94
2019-02-21T17:25:26.948Z,65.06
2019-02-21T17:27:52.811Z,65.63
2019-02-21T17:30:19.449Z,66.35
2019-02-21T17:32:45.840Z,67.35
2019-02-21T17:35:12.795Z,66.17
2019-02-21T17:37:38.642Z,67.03
2019-02-21T17:40:08.348Z,67.92
2019-02-21T17:42:34.179Z,66.82
2019-02-21T17:44:59.999Z,67.15
2019-02-21T17:47:25.891Z,67.63
2019-02-21T17:49:51.735Z,67.72
2019-02-21T17:52:17.698Z,66.35
2019-02-21T17:54:43.546Z,66.15
2019-02-21T17:57:09.508Z,66.09
2019-02-21T17:59:35.355Z,65.81
2019-02-21T18:02:01.242Z,65.88
2019-02-21T18:04:27.197Z,65.86
2019-02-21T18:06:53.146Z,65.86
2019-02-21T18:09:19.127Z,65.98
2019-02-21T18:11:45.048Z,66.07
2019-02-21T18:14:10.872Z,66.16
2019-02-21T18:16:36.812Z,66.34
2019-02-21T18:19:02.693Z,66.59
2019-02-21T18:21:28.895Z,67.07
2019-02-21T18:23:54.777Z,67.16
2019-02-21T18:26:20.731Z,67.63
2019-02-21T18:28:46.588Z,67.93
2019-02-21T18:31:12.436Z,68.10
2019-02-21T18:33:38.516Z,68.84
2019-02-21T18:36:04.441Z,69.44
2019-02-21T18:38:30.408Z,71.27
2019-02-21T18:40:56.291Z,72.58
2019-02-21T18:43:22.189Z,73.05
2019-02-21T18:45:48.440Z,73.60
2019-02-21T18:48:14.404Z,74.50
2019-02-21T18:50:40.363Z,74.40
2019-02-21T18:53:06.205Z,74.72
2019-02-21T18:55:32.080Z,75.11
2019-02-21T18:57:57.925Z,75.44
2019-02-21T19:00:25.521Z,75.79
2019-02-21T19:02:51.547Z,75.89
2019-02-21T19:05:18.723Z,75.97
2019-02-21T19:07:44.564Z,75.88
2019-02-21T19:10:14.282Z,76.27
2019-02-21T19:12:40.158Z,76.65
2019-02-21T19:15:08.420Z,76.31
2019-02-21T19:17:34.335Z,76.58
2019-02-21T19:20:00.790Z,76.49
2019-02-21T19:22:26.677Z,76.83
2019-02-21T19:24:52.867Z,77.06
2019-02-21T19:27:18.740Z,77.12
2019-02-21T19:29:44.647Z,77.15
2019-02-21T19:32:10.495Z,77.40
2019-02-21T19:34:36.441Z,77.74
2019-02-21T19:37:02.407Z,76.92
2019-02-21T19:39:28.269Z,77.67
2019-02-21T19:41:54.394Z,77.55
2019-02-21T19:44:20.246Z,77.11
2019-02-21T19:46:46.226Z,77.07
2019-02-21T19:49:12.109Z,77.54
2019-02-21T19:51:38.039Z,78.15
2019-02-21T19:54:03.977Z,78.52
2019-02-21T19:56:29.859Z,78.70
2019-02-21T19:58:55.816Z,78.55
2019-02-21T20:01:21.951Z,78.62
2019-02-21T20:03:47.831Z,78.87
2019-02-21T20:06:13.757Z,78.86
2019-02-21T20:08:39.773Z,78.98
2019-02-21T20:11:05.749Z,79.20
2019-02-21T20:13:31.717Z,79.38
2019-02-21T20:15:57.672Z,79.43
2019-02-21T20:18:23.572Z,79.45
2019-02-21T20:20:49.556Z,79.53
2019-02-21T20:23:15.846Z,79.70
2019-02-21T20:25:41.797Z,79.92
2019-02-21T20:28:08.073Z,80.08
2019-02-21T20:30:33.903Z,80.47
2019-02-21T20:32:59.803Z,80.46
2019-02-21T20:35:25.808Z,80.48
2019-02-21T20:37:51.657Z,80.48
2019-02-21T20:40:17.608Z,80.53
2019-02-21T20:42:43.663Z,80.55
2019-02-21T20:45:10.949Z,80.65
2019-02-21T20:47:36.787Z,80.77
2019-02-21T20:50:05.424Z,80.76
2019-02-21T20:52:31.401Z,80.57
2019-02-21T20:54:57.455Z,80.82
2019-02-21T20:57:23.377Z,80.90
2019-02-21T20:59:49.387Z,80.96
2019-02-21T21:02:15.360Z,80.64
2019-02-21T21:04:41.508Z,80.62
2019-02-21T21:07:07.550Z,80.46
2019-02-21T21:09:33.425Z,80.69
2019-02-21T21:11:59.306Z,80.87
2019-02-21T21:14:25.273Z,80.83
2019-02-21T21:16:51.200Z,80.76
2019-02-21T21:19:17.185Z,80.65
2019-02-21T21:21:43.141Z,79.71
2019-02-21T21:24:08.995Z,78.93
2019-02-21T21:26:35.014Z,78.08
2019-02-21T21:29:00.917Z,77.88
2019-02-21T21:31:26.865Z,77.21
2019-02-21T21:33:52.830Z,77.02
2019-02-21T21:36:18.822Z,77.11
2019-02-21T21:38:53.728Z,77.27
2019-02-21T21:41:12.781Z,77.41
2019-02-21T21:43:38.705Z,77.56
2019-02-21T21:46:04.693Z,77.57
2019-02-21T21:48:30.636Z,77.81
2019-02-21T21:50:56.503Z,78.24
2019-02-21T21:53:22.459Z,78.39
2019-02-21T21:55:48.340Z,78.47
2019-02-21T21:58:14.279Z,78.47
2019-02-21T22:00:40.142Z,78.45
2019-02-21T22:03:06.117Z,78.72
2019-02-21T22:05:31.973Z,79.09
2019-02-21T22:07:57.829Z,79.87
2019-02-21T22:10:23.770Z,80.33
2019-02-21T22:12:49.633Z,80.79
2019-02-21T22:15:20.147Z,81.16
2019-02-21T22:17:46.035Z,81.41
2019-02-21T22:20:12.585Z,82.30
2019-02-21T22:22:38.458Z,82.53
2019-02-21T22:25:07.551Z,82.86
2019-02-21T22:27:33.389Z,82.99
2019-02-21T22:29:59.226Z,83.61
2019-02-21T22:32:25.172Z,83.67
2019-02-21T22:34:51.117Z,83.80
2019-02-21T22:37:17.046Z,84.06
2019-02-21T22:39:42.928Z,84.09
2019-02-21T22:42:08.774Z,84.22
2019-02-21T22:44:34.653Z,84.69
2019-02-21T22:47:00.494Z,85.12
2019-02-21T22:49:26.443Z,85.28
2019-02-21T22:51:52.255Z,85.44
2019-02-21T22:54:18.221Z,85.45
2019-02-21T22:56:44.143Z,85.59
2019-02-21T22:59:09.992Z,85.73
2019-02-21T23:01:35.913Z,85.94
2019-02-21T23:04:08.343Z,86.32
2019-02-21T23:06:47.103Z,86.54
2019-02-21T23:09:26.941Z,87.16
2019-02-21T23:11:46.235Z,87.38
2019-02-21T23:14:12.183Z,87.29
2019-02-21T23:16:38.129Z,87.50
2019-02-21T23:19:04.006Z,87.72
2019-02-21T23:21:29.914Z,87.74
2019-02-21T23:23:55.796Z,87.85
2019-02-21T23:26:21.608Z,87.71
2019-02-21T23:28:47.436Z,87.56
2019-02-21T23:31:13.382Z,87.60
2019-02-21T23:33:53.336Z,87.70
2019-02-21T23:36:19.184Z,87.63
2019-02-21T23:38:45.083Z,87.44
2019-02-21T23:41:11.065Z,87.59
2019-02-21T23:43:37.000Z,87.41
2019-02-21T23:46:02.954Z,87.84
2019-02-21T23:48:28.798Z,88.21
2019-02-21T23:50:54.645Z,88.31
2019-02-21T23:53:20.465Z,88.40
2019-02-21T23:55:46.326Z,88.46
2019-02-21T23:58:12.155Z,88.67
